Hauptseite
METAR-TAF:

METAR-TAF

Flughäfen :

Flughafen Frankfurt am Main

Frankfurt am Main, Deutschland

Breite: 50-03N, Länge: 008-36E, Höhe: 111 m

Beobachtung

Neuester Wetterbericht von vor 31 Minuten, um 03:50 UTC
Wind 8 kt aus Nord
Temperatur -6°C
Luftfeuchtigkeit 86%
Luftdruck 1022 hPa
Sichtweite 10 km oder mehr
keine Wolken unter 1500 m und keine Kumulonimbus oder Gewitterwolken

METAR: EDDF 210350Z 01008KT CAVOK M06/M08 Q1022 NOSIG

Zeit: 05:21 (04:21 UTC)

Prognose

Neuester Wetterbericht von vor 5 Stunden und 21 Minuten, um 23:00 UTC
Gültige Prognose vom 21 um 00 UTC bis 22 um 06 UTC
Wind 4 kt aus Nordost
Sichtweite 10 km oder mehr
keine Wolken unter 1500 m und keine Kumulonimbus oder Gewitterwolken

TAF: EDDF 202300Z 2100/2206 05004KT CAVOK

Wetterbeobachtungen und Prognosen von mehr als 4000 Flughäfen (METAR und TAF Bericht).

Die verfügbaren Stationen werden durch gelbe und rote Markierungen auf der Karte dargestellt.

Führen Sie die Maus auf sie, um den Namen der Station zu sehen.

Darauf klicken, um die Beobachtung von Wetterbeobachtungen und Prognosen zu sehen.

Um die Karte zu ändern : klicken Sie auf den grünen Tasten mit einem schwarzen Kreuz Zum Vergrößern, auf den grünen Button mit einem Gedankenstrich zu verkleinern, oder auf die grünen Pfeile für benachbarte Karten.


METAR-TAF: